createdAt,value
2022-07-30T00:01:37.975Z,7.68
2022-07-30T00:04:07.124Z,9.52
2022-07-30T00:06:37.572Z,9.05
2022-07-30T00:09:05.072Z,8.63
2022-07-30T00:11:32.587Z,8.90
2022-07-30T00:14:00.109Z,8.75
2022-07-30T00:16:27.905Z,9.55
2022-07-30T00:18:55.498Z,8.70
2022-07-30T00:21:38.671Z,9.75
2022-07-30T00:24:08.526Z,8.98
2022-07-30T00:26:36.294Z,9.15
2022-07-30T00:29:04.089Z,10.23
2022-07-30T00:31:31.667Z,9.40
2022-07-30T00:33:59.212Z,8.85
2022-07-30T00:36:28.256Z,9.80
2022-07-30T00:38:55.780Z,9.93
2022-07-30T00:41:23.372Z,9.48
2022-07-30T00:43:51.003Z,9.20
2022-07-30T00:46:19.687Z,10.38
2022-07-30T00:48:47.399Z,8.50
2022-07-30T00:51:14.879Z,8.77
2022-07-30T00:53:43.761Z,8.35
2022-07-30T00:56:11.281Z,8.23
2022-07-30T00:58:38.817Z,8.95
2022-07-30T01:01:06.377Z,8.57
2022-07-30T01:03:33.901Z,8.90
2022-07-30T01:06:01.432Z,8.52
2022-07-30T01:08:28.977Z,9.68
2022-07-30T01:10:57.997Z,8.43
2022-07-30T01:13:25.574Z,8.77
2022-07-30T01:15:53.050Z,8.35
2022-07-30T01:18:20.927Z,8.63
2022-07-30T01:20:50.197Z,8.73
2022-07-30T01:23:22.421Z,8.00
2022-07-30T01:25:54.412Z,8.77
2022-07-30T01:28:25.611Z,7.70
2022-07-30T01:30:53.749Z,8.63
2022-07-30T01:33:22.824Z,7.60
2022-07-30T01:35:51.583Z,8.20
2022-07-30T01:38:21.861Z,7.90
2022-07-30T01:40:50.218Z,8.40
2022-07-30T01:43:19.874Z,8.70
2022-07-30T01:45:48.207Z,8.82
2022-07-30T01:48:17.873Z,9.80
2022-07-30T01:50:46.458Z,10.38
2022-07-30T01:53:16.192Z,10.77
2022-07-30T01:55:43.795Z,10.65
2022-07-30T01:58:11.692Z,11.95
2022-07-30T02:00:43.934Z,11.82
2022-07-30T02:03:11.588Z,11.73
2022-07-30T02:05:39.898Z,11.32
2022-07-30T02:08:15.177Z,10.70
2022-07-30T02:10:45.052Z,12.07
2022-07-30T02:13:13.872Z,11.23
2022-07-30T02:15:45.688Z,11.93
2022-07-30T02:18:16.011Z,12.10
2022-07-30T02:20:45.143Z,12.70
2022-07-30T02:23:16.695Z,12.80
2022-07-30T02:25:45.390Z,13.88
2022-07-30T02:28:14.130Z,14.27
2022-07-30T02:30:44.730Z,14.40
2022-07-30T02:33:15.324Z,15.20
2022-07-30T02:35:42.868Z,14.98
2022-07-30T02:38:11.109Z,14.93
2022-07-30T02:40:41.532Z,13.70
2022-07-30T02:43:09.201Z,13.98
2022-07-30T02:45:38.083Z,14.23
2022-07-30T02:48:07.266Z,12.30
2022-07-30T02:50:37.163Z,14.80
2022-07-30T02:53:06.220Z,15.98
2022-07-30T02:55:35.446Z,14.93
2022-07-30T02:58:04.067Z,15.52
2022-07-30T03:00:32.141Z,13.90
2022-07-30T03:03:00.166Z,14.45
2022-07-30T03:05:30.144Z,14.50
2022-07-30T03:08:00.127Z,15.25
2022-07-30T03:10:28.357Z,15.10
2022-07-30T03:12:56.525Z,16.65
2022-07-30T03:15:24.389Z,18.45
2022-07-30T03:17:53.721Z,18.05
2022-07-30T03:20:26.505Z,17.88
2022-07-30T03:22:54.915Z,18.65
2022-07-30T03:25:26.560Z,20.80
2022-07-30T03:27:55.241Z,21.42
2022-07-30T03:30:23.719Z,25.33
2022-07-30T03:32:51.473Z,30.73
2022-07-30T03:35:20.250Z,26.93
2022-07-30T03:37:48.231Z,28.30
2022-07-30T03:40:16.227Z,26.77
2022-07-30T03:42:46.142Z,28.83
2022-07-30T03:45:14.462Z,27.23
2022-07-30T03:47:42.752Z,23.10
2022-07-30T03:50:10.750Z,21.40
2022-07-30T03:52:40.990Z,21.70
2022-07-30T03:55:09.545Z,21.23
2022-07-30T03:57:37.145Z,21.77
2022-07-30T04:00:07.936Z,20.07
2022-07-30T04:02:41.770Z,18.70
2022-07-30T04:05:09.547Z,19.67
2022-07-30T04:07:41.351Z,18.57
2022-07-30T04:10:12.951Z,21.43
2022-07-30T04:12:40.707Z,20.23
2022-07-30T04:16:40.234Z,20.80
2022-07-30T04:18:02.154Z,21.60
2022-07-30T04:20:32.465Z,20.60
2022-07-30T04:23:00.110Z,21.37
2022-07-30T04:25:27.790Z,20.50
2022-07-30T04:28:03.308Z,19.47
2022-07-30T04:30:34.941Z,20.93
2022-07-30T04:33:02.675Z,20.70
2022-07-30T04:35:50.776Z,20.30
2022-07-30T04:38:18.127Z,19.43
2022-07-30T04:40:45.906Z,19.40
2022-07-30T04:43:13.487Z,19.27
2022-07-30T04:45:42.476Z,18.43
2022-07-30T04:48:11.079Z,19.07
2022-07-30T04:50:40.435Z,18.30
2022-07-30T04:53:11.484Z,17.53
2022-07-30T04:55:41.664Z,19.65
2022-07-30T04:58:10.419Z,18.83
2022-07-30T05:00:41.354Z,17.40
2022-07-30T05:03:13.327Z,18.43
2022-07-30T05:05:41.508Z,18.13
2022-07-30T05:08:09.208Z,16.00
2022-07-30T05:10:37.275Z,19.23
2022-07-30T05:13:04.791Z,18.67
2022-07-30T05:15:35.578Z,18.70
2022-07-30T05:18:04.687Z,18.87
2022-07-30T05:20:33.612Z,19.20
2022-07-30T05:23:01.604Z,19.33
2022-07-30T05:25:29.115Z,19.27
2022-07-30T05:27:56.936Z,19.40
2022-07-30T05:30:27.516Z,20.90
2022-07-30T05:32:56.113Z,19.13
2022-07-30T05:35:23.778Z,20.50
2022-07-30T05:37:52.642Z,20.90
2022-07-30T05:40:20.154Z,22.42
2022-07-30T05:42:47.720Z,21.07
2022-07-30T05:45:15.200Z,26.13
2022-07-30T05:47:42.699Z,26.42
2022-07-30T05:50:10.271Z,20.13
2022-07-30T05:52:37.818Z,26.57
2022-07-30T05:55:07.554Z,26.75
2022-07-30T05:57:36.765Z,24.02
2022-07-30T06:00:04.938Z,25.23
2022-07-30T06:02:32.519Z,25.97
2022-07-30T06:05:00.559Z,24.70
2022-07-30T06:07:28.246Z,25.20
2022-07-30T06:10:00.040Z,23.90
2022-07-30T06:12:29.350Z,23.55
2022-07-30T06:14:56.990Z,21.45
2022-07-30T06:17:24.488Z,21.00
2022-07-30T06:19:53.277Z,18.13
2022-07-30T06:22:25.830Z,18.60
2022-07-30T06:24:53.659Z,16.88
2022-07-30T06:27:21.239Z,15.05
2022-07-30T06:29:50.186Z,14.23
2022-07-30T06:32:19.520Z,13.25
2022-07-30T06:34:46.990Z,12.90
2022-07-30T06:37:14.547Z,10.77
2022-07-30T06:39:56.754Z,10.10
2022-07-30T06:42:26.379Z,10.18
2022-07-30T06:44:55.254Z,10.27
2022-07-30T06:47:26.121Z,9.63
2022-07-30T06:49:54.134Z,10.38
2022-07-30T06:52:21.823Z,10.45
2022-07-30T06:54:49.341Z,9.23
2022-07-30T06:57:17.044Z,9.88
2022-07-30T06:59:56.731Z,9.93
2022-07-30T07:02:26.428Z,9.63
2022-07-30T07:04:54.079Z,9.23
2022-07-30T07:07:40.340Z,8.02
2022-07-30T07:10:09.865Z,7.75
2022-07-30T07:12:37.698Z,7.22
2022-07-30T07:15:05.674Z,5.13
2022-07-30T07:17:34.609Z,5.47
2022-07-30T07:20:03.010Z,6.63
2022-07-30T07:22:30.863Z,7.28
2022-07-30T07:24:58.477Z,6.47
2022-07-30T07:27:26.104Z,5.85
2022-07-30T07:30:05.758Z,6.22
2022-07-30T07:32:35.628Z,5.97
2022-07-30T07:35:03.490Z,5.75
2022-07-30T07:37:31.307Z,7.25
2022-07-30T07:39:58.898Z,7.07
2022-07-30T07:42:26.443Z,7.50
2022-07-30T07:44:54.002Z,6.10
2022-07-30T07:47:21.556Z,5.88
2022-07-30T07:49:50.523Z,7.60
2022-07-30T07:52:18.083Z,6.57
2022-07-30T07:54:45.612Z,5.07
2022-07-30T07:57:14.685Z,5.22
2022-07-30T07:59:42.924Z,4.05
2022-07-30T08:02:10.594Z,4.97
2022-07-30T08:04:38.245Z,4.28
2022-07-30T08:07:07.860Z,3.75
2022-07-30T08:09:43.520Z,4.35
2022-07-30T08:12:12.061Z,3.72
2022-07-30T08:14:39.649Z,3.95
2022-07-30T08:17:07.905Z,4.53
2022-07-30T08:19:35.928Z,4.90
2022-07-30T08:22:03.505Z,3.85
2022-07-30T08:24:34.729Z,4.32
2022-07-30T08:27:02.645Z,4.43
2022-07-30T08:29:30.925Z,5.00
2022-07-30T08:31:58.759Z,4.40
2022-07-30T08:34:26.575Z,4.55
2022-07-30T08:36:54.095Z,4.70
2022-07-30T08:39:21.651Z,4.40
2022-07-30T08:41:50.634Z,4.60
2022-07-30T08:44:18.866Z,4.25
2022-07-30T08:46:47.877Z,4.40
2022-07-30T08:49:15.830Z,5.97
2022-07-30T08:51:43.401Z,4.88
2022-07-30T08:54:11.017Z,6.00
2022-07-30T08:56:38.740Z,4.78
2022-07-30T08:59:08.057Z,4.93
2022-07-30T09:01:35.598Z,4.82
2022-07-30T09:04:03.204Z,5.20
2022-07-30T09:06:30.963Z,5.72
2022-07-30T09:08:59.395Z,6.80
2022-07-30T09:11:26.966Z,4.63
2022-07-30T09:13:54.619Z,4.15
2022-07-30T09:16:24.261Z,4.10
2022-07-30T09:18:52.921Z,4.47
2022-07-30T09:21:23.391Z,4.10
2022-07-30T09:23:58.068Z,3.33
2022-07-30T09:26:25.897Z,4.07
2022-07-30T09:28:54.158Z,5.95
2022-07-30T09:31:23.747Z,8.07
2022-07-30T09:33:51.631Z,8.23
2022-07-30T09:36:19.496Z,4.65
2022-07-30T09:38:48.639Z,9.27
2022-07-30T09:41:37.539Z,3.03
2022-07-30T09:44:04.989Z,1.98
2022-07-30T09:46:44.974Z,1.67
2022-07-30T09:49:16.388Z,1.77
2022-07-30T09:51:55.509Z,1.30
2022-07-30T09:54:25.355Z,2.22
2022-07-30T09:57:04.548Z,2.75
2022-07-30T09:59:35.265Z,1.60
2022-07-30T10:02:09.976Z,2.67
2022-07-30T10:04:40.336Z,2.47
2022-07-30T10:07:25.235Z,1.40
2022-07-30T10:09:54.258Z,3.03
2022-07-30T10:12:24.214Z,2.20
2022-07-30T10:14:53.989Z,2.10
2022-07-30T10:17:23.270Z,1.23
2022-07-30T10:19:53.110Z,1.52
2022-07-30T10:22:22.350Z,4.28
2022-07-30T10:24:51.196Z,1.85
2022-07-30T10:27:19.061Z,2.03
2022-07-30T10:29:46.701Z,2.22
2022-07-30T10:32:14.680Z,8.05
2022-07-30T10:34:43.941Z,1.70
2022-07-30T10:37:12.348Z,1.73
2022-07-30T10:39:43.442Z,1.50
2022-07-30T10:42:20.170Z,2.10
2022-07-30T10:44:57.129Z,1.60
2022-07-30T10:47:29.797Z,1.10
2022-07-30T10:50:10.593Z,1.35
2022-07-30T10:52:44.289Z,1.60
2022-07-30T10:55:13.861Z,2.08
2022-07-30T10:58:02.790Z,2.50
2022-07-30T11:00:34.256Z,2.33
2022-07-30T11:03:16.255Z,3.33
2022-07-30T11:05:46.099Z,1.52
2022-07-30T11:08:36.382Z,1.70
2022-07-30T11:11:19.759Z,1.40
2022-07-30T11:13:53.459Z,2.65
2022-07-30T11:16:23.247Z,1.35
2022-07-30T11:19:53.391Z,2.60
2022-07-30T11:22:17.763Z,2.85
2022-07-30T11:24:48.848Z,1.60
2022-07-30T11:27:31.585Z,2.22
2022-07-30T11:30:03.905Z,1.90
2022-07-30T11:32:32.409Z,4.80
2022-07-30T11:35:34.820Z,1.52
2022-07-30T11:38:06.461Z,1.67
2022-07-30T11:40:35.173Z,3.15
2022-07-30T11:43:33.140Z,1.63
2022-07-30T11:46:06.701Z,2.70
2022-07-30T11:48:34.879Z,3.08
2022-07-30T11:51:04.040Z,1.70
2022-07-30T11:53:33.428Z,3.30
2022-07-30T11:56:06.635Z,1.48
2022-07-30T11:58:35.849Z,1.40
2022-07-30T12:01:09.433Z,3.45
2022-07-30T12:03:41.069Z,1.75
2022-07-30T12:06:10.655Z,1.50
2022-07-30T12:08:45.305Z,1.58
2022-07-30T12:11:12.987Z,2.25
2022-07-30T12:13:44.500Z,2.75
2022-07-30T12:16:14.363Z,1.40
2022-07-30T12:18:41.917Z,1.55
2022-07-30T12:21:12.020Z,1.75
2022-07-30T12:23:41.902Z,1.55
2022-07-30T12:26:21.021Z,3.47
2022-07-30T12:28:48.603Z,3.45
2022-07-30T12:31:16.763Z,4.20
2022-07-30T12:33:44.344Z,5.70
2022-07-30T12:36:24.293Z,3.80
2022-07-30T12:38:53.021Z,7.18
2022-07-30T12:41:22.546Z,8.50
2022-07-30T12:43:51.176Z,2.70
2022-07-30T12:46:20.199Z,3.80
2022-07-30T12:48:51.493Z,7.35
2022-07-30T12:51:19.468Z,4.85
2022-07-30T12:53:48.712Z,8.60
2022-07-30T12:56:17.412Z,4.85
2022-07-30T12:58:46.436Z,7.45
2022-07-30T13:01:16.613Z,5.15
2022-07-30T13:03:45.453Z,4.38
2022-07-30T13:06:14.835Z,3.42
2022-07-30T13:08:50.179Z,4.05
2022-07-30T13:11:18.652Z,3.10
2022-07-30T13:13:47.899Z,5.05
2022-07-30T13:16:15.626Z,3.38
2022-07-30T13:18:43.253Z,2.63
2022-07-30T13:21:11.274Z,4.07
2022-07-30T13:23:39.161Z,3.15
2022-07-30T13:26:07.848Z,3.15
2022-07-30T13:28:35.550Z,1.73
2022-07-30T13:31:04.506Z,3.08
2022-07-30T13:33:32.192Z,2.92
2022-07-30T13:35:59.945Z,3.15
2022-07-30T13:38:27.733Z,2.08
2022-07-30T13:41:00.355Z,2.00
2022-07-30T13:43:32.041Z,2.35
2022-07-30T13:46:03.020Z,1.60
2022-07-30T13:48:32.183Z,1.98
2022-07-30T13:51:01.108Z,1.75
2022-07-30T13:53:29.626Z,1.45
2022-07-30T13:55:59.352Z,2.10
2022-07-30T13:58:27.777Z,1.83
2022-07-30T14:00:55.327Z,1.10
2022-07-30T14:03:23.012Z,1.50
2022-07-30T14:05:52.244Z,1.75
2022-07-30T14:08:19.782Z,1.20
2022-07-30T14:10:47.343Z,2.28
2022-07-30T14:13:20.851Z,1.55
2022-07-30T14:15:49.120Z,2.38
2022-07-30T14:18:16.685Z,2.20
2022-07-30T14:20:48.440Z,1.90
2022-07-30T14:23:17.825Z,1.25
2022-07-30T14:25:45.612Z,2.33
2022-07-30T14:28:13.211Z,0.90
2022-07-30T14:30:40.795Z,1.30
2022-07-30T14:33:08.442Z,1.10
2022-07-30T14:35:36.016Z,1.25
2022-07-30T14:38:04.124Z,2.08
2022-07-30T14:40:33.059Z,2.08
2022-07-30T14:43:00.671Z,2.13
2022-07-30T14:45:28.698Z,1.30
2022-07-30T14:47:56.388Z,3.25
2022-07-30T14:50:24.098Z,1.70
2022-07-30T14:52:52.053Z,2.67
2022-07-30T14:55:19.802Z,2.13
2022-07-30T14:57:48.692Z,1.20
2022-07-30T15:00:16.765Z,3.17
2022-07-30T15:02:44.338Z,1.48
2022-07-30T15:05:11.927Z,3.17
2022-07-30T15:07:39.570Z,1.92
2022-07-30T15:10:08.280Z,2.30
2022-07-30T15:12:37.096Z,2.42
2022-07-30T15:15:08.341Z,1.40
2022-07-30T15:17:37.504Z,3.83
2022-07-30T15:20:07.775Z,5.85
2022-07-30T15:22:35.438Z,1.30
2022-07-30T15:25:03.246Z,2.92
2022-07-30T15:27:33.880Z,4.55
2022-07-30T15:30:02.064Z,1.55
2022-07-30T15:32:31.078Z,7.90
2022-07-30T15:34:58.737Z,4.88
2022-07-30T15:37:26.940Z,1.90
2022-07-30T15:39:54.549Z,4.40
2022-07-30T15:42:22.695Z,2.63
2022-07-30T15:45:14.240Z,3.63
2022-07-30T15:47:40.362Z,3.72
2022-07-30T15:50:08.809Z,9.10
2022-07-30T15:52:36.981Z,2.55
2022-07-30T15:55:04.761Z,6.22
2022-07-30T15:57:32.560Z,5.65
2022-07-30T16:00:00.539Z,2.88
2022-07-30T16:02:28.194Z,3.22
2022-07-30T16:04:57.198Z,3.08
2022-07-30T16:07:25.505Z,4.78
2022-07-30T16:09:54.775Z,1.98
2022-07-30T16:12:22.416Z,2.60
2022-07-30T16:14:50.857Z,2.75
2022-07-30T16:17:18.570Z,2.65
2022-07-30T16:19:46.127Z,4.20
2022-07-30T16:22:22.808Z,3.35
2022-07-30T16:24:52.813Z,2.92
2022-07-30T16:27:20.473Z,6.43
2022-07-30T16:29:48.215Z,2.75
2022-07-30T16:32:15.842Z,5.00
2022-07-30T16:34:43.492Z,2.60
2022-07-30T16:37:11.127Z,2.20
2022-07-30T16:39:40.150Z,4.70
2022-07-30T16:42:07.987Z,3.88
2022-07-30T16:44:35.613Z,2.63
2022-07-30T16:47:05.165Z,2.90
2022-07-30T16:49:32.789Z,7.68
2022-07-30T16:52:00.757Z,3.13
2022-07-30T16:54:28.635Z,2.70
2022-07-30T16:56:57.702Z,2.20
2022-07-30T16:59:25.376Z,3.40
2022-07-30T17:01:53.020Z,1.85
2022-07-30T17:04:20.740Z,1.88
2022-07-30T17:06:48.326Z,2.50
2022-07-30T17:09:16.213Z,3.75
2022-07-30T17:11:48.019Z,2.38
2022-07-30T17:14:22.243Z,2.20
2022-07-30T17:16:49.963Z,2.78
2022-07-30T17:19:17.777Z,2.67
2022-07-30T17:21:45.347Z,7.80
2022-07-30T17:24:13.711Z,2.78
2022-07-30T17:26:43.229Z,2.47
2022-07-30T17:29:14.171Z,2.40
2022-07-30T17:31:44.517Z,2.10
2022-07-30T17:34:13.954Z,3.03
2022-07-30T17:36:47.000Z,4.85
2022-07-30T17:40:19.094Z,5.28
2022-07-30T17:42:08.508Z,3.70
2022-07-30T17:44:36.497Z,2.17
2022-07-30T17:47:05.481Z,7.07
2022-07-30T17:49:34.349Z,2.22
2022-07-30T17:52:02.235Z,2.08
2022-07-30T17:54:30.013Z,3.13
2022-07-30T17:56:57.755Z,2.38
2022-07-30T17:59:25.447Z,4.13
2022-07-30T18:01:53.020Z,2.10
2022-07-30T18:04:21.975Z,3.17
2022-07-30T18:06:50.696Z,2.20
2022-07-30T18:09:18.417Z,1.67
2022-07-30T18:11:46.035Z,2.15
2022-07-30T18:14:13.587Z,2.63
2022-07-30T18:16:41.136Z,6.75
2022-07-30T18:19:08.803Z,2.17
2022-07-30T18:21:52.033Z,3.40
2022-07-30T18:24:19.622Z,1.88
2022-07-30T18:26:52.539Z,2.40
2022-07-30T18:29:20.941Z,3.45
2022-07-30T18:31:48.748Z,2.70
2022-07-30T18:34:16.640Z,5.28
2022-07-30T18:36:44.394Z,4.53
2022-07-30T18:39:13.483Z,2.80
2022-07-30T18:41:41.130Z,1.85
2022-07-30T18:44:08.784Z,3.28
2022-07-30T18:46:36.579Z,1.98
2022-07-30T18:49:26.657Z,2.63
2022-07-30T18:51:51.899Z,2.05
2022-07-30T18:54:21.165Z,3.70
2022-07-30T18:56:48.804Z,3.03
2022-07-30T18:59:16.407Z,2.05
2022-07-30T19:01:44.031Z,3.95
2022-07-30T19:04:11.609Z,5.60
2022-07-30T19:06:39.772Z,2.13
2022-07-30T19:09:12.525Z,1.88
2022-07-30T19:11:46.182Z,1.83
2022-07-30T19:14:14.326Z,4.47
2022-07-30T19:16:42.314Z,4.47
2022-07-30T19:19:12.831Z,2.85
2022-07-30T19:21:40.875Z,2.65
2022-07-30T19:24:08.852Z,2.05
2022-07-30T19:26:39.333Z,2.78
2022-07-30T19:29:09.558Z,3.88
2022-07-30T19:31:37.177Z,2.45
2022-07-30T19:34:05.126Z,2.97
2022-07-30T19:36:33.555Z,3.03
2022-07-30T19:39:07.694Z,4.32
2022-07-30T19:41:41.384Z,2.70
2022-07-30T19:44:11.300Z,3.30
2022-07-30T19:46:39.046Z,3.85
2022-07-30T19:49:08.990Z,3.25
2022-07-30T19:52:11.368Z,3.20
2022-07-30T19:54:24.191Z,3.22
2022-07-30T19:56:51.822Z,3.63
2022-07-30T19:59:45.877Z,3.60
2022-07-30T20:02:08.458Z,3.83
2022-07-30T20:04:37.648Z,4.25
2022-07-30T20:07:05.267Z,6.55
2022-07-30T20:09:32.923Z,3.95
2022-07-30T20:12:02.625Z,3.60
2022-07-30T20:14:32.869Z,4.00
2022-07-30T20:17:04.500Z,4.57
2022-07-30T20:19:36.255Z,4.15
2022-07-30T20:22:04.864Z,4.03
2022-07-30T20:24:34.575Z,4.05
2022-07-30T20:27:35.524Z,3.90
2022-07-30T20:29:51.936Z,4.57
2022-07-30T20:32:21.863Z,5.28
2022-07-30T20:34:49.587Z,4.47
2022-07-30T20:37:22.379Z,6.30
2022-07-30T20:39:50.461Z,5.10
2022-07-30T20:42:18.793Z,5.28
2022-07-30T20:44:53.239Z,6.13
2022-07-30T20:47:34.871Z,5.32
2022-07-30T20:50:10.332Z,9.25
2022-07-30T20:52:40.154Z,9.45
2022-07-30T20:55:09.171Z,7.50
2022-07-30T20:57:57.050Z,6.57
2022-07-30T21:00:26.366Z,8.93
2022-07-30T21:02:54.027Z,5.25
2022-07-30T21:05:21.700Z,5.68
2022-07-30T21:07:53.075Z,5.95
2022-07-30T21:10:23.467Z,5.63
2022-07-30T21:12:56.995Z,6.28
2022-07-30T21:15:33.187Z,6.75
2022-07-30T21:18:01.721Z,6.63
2022-07-30T21:20:30.067Z,6.40
2022-07-30T21:23:03.399Z,6.25
2022-07-30T21:25:32.556Z,6.47
2022-07-30T21:28:00.947Z,6.32
2022-07-30T21:30:32.875Z,6.47
2022-07-30T21:33:00.838Z,7.43
2022-07-30T21:35:32.041Z,6.53
2022-07-30T21:38:00.084Z,5.68
2022-07-30T21:40:28.899Z,4.63
2022-07-30T21:42:57.016Z,5.25
2022-07-30T21:45:28.354Z,6.35
2022-07-30T21:48:10.847Z,5.97
2022-07-30T21:50:40.001Z,6.95
2022-07-30T21:53:07.957Z,5.57
2022-07-30T21:55:52.480Z,6.22
2022-07-30T21:58:25.970Z,6.28
2022-07-30T22:01:17.823Z,6.82
2022-07-30T22:04:05.118Z,5.10
2022-07-30T22:06:35.419Z,8.30
2022-07-30T22:09:08.561Z,5.55
2022-07-30T22:11:46.622Z,8.20
2022-07-30T22:14:14.207Z,7.03
2022-07-30T22:16:46.165Z,6.65
2022-07-30T22:19:15.733Z,6.30
2022-07-30T22:21:46.322Z,6.70
2022-07-30T22:24:28.815Z,7.55
2022-07-30T22:26:58.371Z,8.18
2022-07-30T22:29:27.754Z,7.50
2022-07-30T22:32:02.789Z,8.60
2022-07-30T22:34:31.999Z,7.45
2022-07-30T22:36:59.565Z,7.70
2022-07-30T22:39:31.586Z,8.43
2022-07-30T22:42:00.947Z,7.60
2022-07-30T22:44:29.108Z,8.73
2022-07-30T22:46:56.890Z,7.25
2022-07-30T22:49:46.012Z,7.65
2022-07-30T22:52:16.980Z,7.70
2022-07-30T22:54:50.895Z,7.57
2022-07-30T22:57:23.016Z,7.80
2022-07-30T22:59:58.611Z,9.23
2022-07-30T23:02:30.658Z,8.53
2022-07-30T23:04:58.260Z,8.07
2022-07-30T23:07:39.591Z,8.30
2022-07-30T23:10:17.160Z,9.05
2022-07-30T23:12:48.415Z,8.83
2022-07-30T23:15:16.100Z,8.35
2022-07-30T23:17:43.835Z,8.23
2022-07-30T23:20:13.688Z,9.35
2022-07-30T23:22:42.619Z,8.93
2022-07-30T23:25:11.242Z,7.77
2022-07-30T23:27:39.268Z,8.52
2022-07-30T23:30:07.535Z,10.32
2022-07-30T23:32:35.125Z,8.33
2022-07-30T23:35:02.659Z,10.70
2022-07-30T23:37:37.886Z,8.23
2022-07-30T23:40:17.188Z,8.57
2022-07-30T23:42:44.788Z,9.00
2022-07-30T23:45:12.475Z,8.43
2022-07-30T23:47:54.548Z,9.27
2022-07-30T23:50:27.615Z,9.70
2022-07-30T23:52:55.745Z,9.63
2022-07-30T23:55:24.807Z,9.70
2022-07-30T23:57:52.348Z,9.43
